Skip to main content

NOAA/GLERL Met Station at Chicago, IL

Previous 5 days (top of hour only)
See also Previous 3 Hours (2 minute increments)
Jump down to Data
Switch to [English][Metric]
Zoom: Click and drag, Pan: shift-click and drag, Unzoom: double-click, Unzoom All




Note: Speed = mean wind during 2-minute period at top of hour,
Gust = max wind during 2-minute period at top of hour,
Peak = max wind during entire hour.
• See also 5-day windrose plot


NOAA/GLERL Met Station at Chicago, IL

Previous 5 days (top of hour only)
See also Previous 3 Hours (2 minute increments)
Jump up to Graphs
Switch to [English][Metric]
                  Wind  Wind  Wind   Air   Dew   Rel
                   Spd   Gst   Dir  Temp    Pt   Hum
YYYY-MM-DD   CST   m/s   m/s   deg     C     C     %
2018-02-24 15:00   7.4   7.9    87   2.5   1.8  95.0
2018-02-24 14:00   7.0   7.5    58   2.1   1.3  94.3
2018-02-24 13:00   5.3   5.7    42   1.6   0.8  94.5
2018-02-24 12:00   8.0   9.1    61   1.4   0.5  93.4
2018-02-24 11:00   7.4   8.1    61   1.3   0.2  92.5
2018-02-24 10:00   7.5   8.1    67   1.2   0.0  91.7
2018-02-24 09:00   7.1   7.9    72   1.3  -0.1  90.4
2018-02-24 08:00   6.8   7.4    61   1.3  -0.2  89.6
2018-02-24 07:00   8.1   8.8    50   1.3  -0.7  86.6
2018-02-24 06:00   6.8   7.6    72   1.3   0.1  91.8
2018-02-24 05:00   8.6   9.2    59   1.5   0.3  91.4
2018-02-24 04:00   6.5   7.1    46   1.7   0.6  92.3
2018-02-24 03:00   4.6   5.3     2   1.1   0.0  92.6
2018-02-24 02:00   4.9   5.3   355   1.3  -0.6  86.9
2018-02-24 01:00   6.2   6.4   350   1.6  -0.7  84.5
2018-02-24 00:00   5.8   6.2   335   2.1  -0.3  83.9
2018-02-23 23:00   5.5   5.8   314   2.7   0.1  83.0
2018-02-23 22:00   3.2   3.6   280   4.0   0.6  78.6
2018-02-23 21:00   3.8   4.2   282   4.2   0.8  78.4
2018-02-23 20:00   4.7   5.1   276   4.3   0.6  76.6
2018-02-23 19:00   4.9   5.3   277   4.1   0.5  77.2
2018-02-23 18:00   6.4   6.9   260   3.9   0.9  80.5
2018-02-23 17:00   7.3   8.4   266   3.8   1.2  82.8
2018-02-23 16:00   8.2   9.3   251   3.8   1.6  85.6
2018-02-23 15:00  10.7  11.6   262   4.4   2.1  84.9
2018-02-23 14:00   8.0   8.9   261   4.8   2.7  86.5
2018-02-23 13:00   8.1   9.9   263   4.7   2.9  88.1
2018-02-23 12:00   7.7   8.4   267   5.0   3.9  92.4
2018-02-23 11:00  10.3  11.2   265   6.0   4.4  89.3
2018-02-23 10:00  10.7  12.4   261   6.9   6.1  94.4
2018-02-23 09:00   3.8   4.8   226   6.7   6.6  99.1
2018-02-23 08:00   5.0   5.5   172   4.9   4.9  99.9
2018-02-23 07:00   6.8   7.2   179   4.4   4.4  99.9
2018-02-23 06:00   6.0   6.5   171   3.0   3.0  99.9
2018-02-23 05:00   6.8   7.6   166   2.6   2.6  99.9
2018-02-23 04:00   6.4   7.3   149   2.4   2.4  99.9
2018-02-23 03:00   6.1   7.0   139   2.4   2.4  99.9
2018-02-23 02:00   7.9   8.6   136   2.4   2.4  99.9
2018-02-23 01:00   7.9   8.5   132   2.5   2.4  99.6
2018-02-23 00:00   8.4   8.8   132   2.5   2.2  97.8
2018-02-22 23:00   8.8   9.7   134   2.6   1.8  94.7
2018-02-22 22:00   9.8  10.5   107   2.7   1.6  92.6
2018-02-22 21:00   7.5   8.1    96   2.8   1.5  91.3
2018-02-22 20:00   8.0   8.6   101   2.5   1.1  90.5
2018-02-22 19:00   7.3   8.0    82   2.7   0.9  87.9
2018-02-22 18:00   6.0   6.9    41   2.4   0.4  86.8
2018-02-22 17:00   5.8   6.2    41   2.3  -0.1  84.1
2018-02-22 16:00   8.7   9.4    63   2.1  -0.5  83.1
2018-02-22 15:00   7.6   8.5    49   1.7  -0.6  84.5
2018-02-22 14:00   7.8   8.8    41   1.4  -0.6  86.7
2018-02-22 13:00   7.8   8.4    46   1.1  -0.6  88.4
2018-02-22 12:00   7.7   8.7    54   1.0  -0.9  87.2
2018-02-22 11:00   7.6   8.2    55   0.9  -0.9  87.8
2018-02-22 10:00   7.7   8.4    64   1.1  -1.0  85.8
2018-02-22 09:00   7.7   8.4    74   1.3  -0.5  87.7
2018-02-22 08:00   8.6   9.5    63   0.9  -1.0  87.1
2018-02-22 07:00   7.4   8.6    51   1.0  -1.1  85.9
2018-02-22 06:00   8.2   8.7    43   0.8  -1.5  84.4
2018-02-22 05:00   9.6  10.4    49   0.7  -1.9  82.6
2018-02-22 04:00   8.1   8.9    46   0.5  -1.8  84.5
2018-02-22 03:00   8.5   9.6    44   0.4  -2.2  82.9
2018-02-22 02:00   9.2   9.9    42   0.2  -2.6  81.3
2018-02-22 01:00   9.4  10.2    39   0.1  -3.0  79.5
2018-02-22 00:00   8.8  10.1    38  -0.2  -3.4  79.2
2018-02-21 23:00   7.8   8.5    35  -0.4  -4.1  76.3
2018-02-21 22:00   7.9   8.6    27  -0.7  -4.3  76.9
2018-02-21 21:00   8.1   8.9    15  -1.0  -4.4  78.0
2018-02-21 20:00   7.1   7.6    15  -1.2  -4.7  77.3
2018-02-21 19:00   7.8   8.5    18  -1.4  -5.3  74.6
2018-02-21 18:00   6.7   7.0    24  -1.6  -5.7  73.6
2018-02-21 17:00   7.2   7.7    15  -1.7  -5.4  76.0
2018-02-21 16:00   7.4   8.8     9  -1.9  -5.7  75.2
2018-02-21 15:00   7.4   8.0     4  -2.1  -6.4  72.7
2018-02-21 14:00   7.6   8.6     6  -2.1  -6.0  74.5
2018-02-21 13:00   8.3   8.6     6  -2.2  -7.2  68.7
2018-02-21 12:00   8.2   9.5     3  -2.1  -7.0  69.4
2018-02-21 11:00   7.6   8.7   351  -2.0  -7.1  68.4
2018-02-21 10:00   7.1   8.1   352  -2.1  -6.2  73.4
2018-02-21 09:00   8.2   9.0   348  -2.0  -5.7  75.9
2018-02-21 08:00   8.7   9.7   343  -2.0  -5.8  75.5
2018-02-21 07:00   7.3   8.2   335  -1.4  -5.2  75.2
2018-02-21 06:00   9.0   9.8   337  -1.1  -4.6  77.2
2018-02-21 05:00   8.9   9.5   340  -0.5  -3.6  79.7
2018-02-21 04:00  10.4  11.4   327  -0.1  -3.3  79.2
2018-02-21 03:00  10.1  10.6   335   0.2  -2.6  81.7
2018-02-21 02:00  10.3  10.8   336   0.6  -0.8  90.1
2018-02-21 01:00   7.3   8.2   338   1.2   0.1  92.6
2018-02-21 00:00   7.3   8.0   301   1.5   0.8  94.9
2018-02-20 23:00   5.9   6.3   307   1.8   1.0  94.2
2018-02-20 22:00   5.8   6.3   299   2.4   1.4  93.2
2018-02-20 21:00   6.8   7.5   284   3.1   2.1  93.1
2018-02-20 20:00   7.3   7.6   313   3.9   2.4  89.7
2018-02-20 19:00   6.5   7.5   294   4.6   3.4  91.6
2018-02-20 18:00   8.8   9.4   278   8.5   7.6  94.1
2018-02-20 17:00   8.2  10.2   236  13.2  12.3  94.1
2018-02-20 16:00   8.8   9.2   218  13.3  12.9  97.4
2018-02-20 15:00   7.2   8.0   263  13.7  13.3  97.5
2018-02-20 14:00  11.7  12.9   284  13.6  13.6  99.8
2018-02-20 13:00  14.9  16.6   203  16.0  16.0  99.7
2018-02-20 12:00  14.0  15.9   202  16.7  15.2  90.8
2018-02-20 11:00  13.8  15.8   204  16.9  15.0  88.4
2018-02-20 10:00  12.8  14.4   203  16.9  15.3  90.0
2018-02-20 09:00  13.6  15.4   204  16.3  15.5  95.2
2018-02-20 08:00   7.7   9.4   216  15.6  15.6  99.8
2018-02-20 07:00   9.8  11.2   209  14.7  14.7  99.8
2018-02-20 06:00   6.5   7.3   265  14.7  14.7  99.8
2018-02-20 05:00  11.4  12.7   214  14.5  14.5  99.8
2018-02-20 04:00  11.1  12.1   211  15.1  15.1  99.8
2018-02-20 03:00   8.8   9.9   207  15.3  15.3  99.8
2018-02-20 02:00   6.7   7.0   187  15.0  15.0  99.8
2018-02-20 01:00  11.3  11.7   202  14.7  14.7  99.8
2018-02-20 00:00  12.7  14.3   209  14.7  14.7  99.8
2018-02-19 23:00  13.5  14.5   199  14.6  14.6  99.8
2018-02-19 22:00  14.3  15.7   196  12.9  12.9  99.8
2018-02-19 21:00  13.8  14.9   205  13.6  13.6  99.8
2018-02-19 20:00  13.3  14.6   201  13.9  13.9  99.8
2018-02-19 19:00  14.2  15.7   209  13.5  13.5  99.8
2018-02-19 18:00  13.4  14.6   205  13.8  13.4  97.2